createdAt,value
2022-11-11T00:01:48.833Z,15.50
2022-11-11T00:07:59.535Z,15.53
2022-11-11T00:14:05.153Z,15.56
2022-11-11T00:20:33.495Z,15.65
2022-11-11T00:26:42.261Z,15.73
2022-11-11T00:32:47.511Z,15.65
2022-11-11T00:38:55.811Z,15.65
2022-11-11T00:45:01.191Z,15.69
2022-11-11T00:51:06.792Z,15.71
2022-11-11T00:57:12.633Z,15.65
2022-11-11T01:03:17.601Z,15.71
2022-11-11T01:09:23.269Z,15.78
2022-11-11T01:15:28.739Z,15.65
2022-11-11T01:21:36.253Z,15.72
2022-11-11T01:27:41.779Z,15.68
2022-11-11T01:33:47.581Z,15.74
2022-11-11T01:39:54.348Z,15.75
2022-11-11T01:46:03.728Z,15.79
2022-11-11T01:52:18.357Z,15.70
2022-11-11T01:58:23.604Z,15.65
2022-11-11T02:04:48.242Z,15.56
2022-11-11T02:10:56.090Z,15.52
2022-11-11T02:17:05.298Z,15.57
2022-11-11T02:23:14.652Z,15.64
2022-11-11T02:29:21.893Z,15.65
2022-11-11T02:35:33.789Z,15.81
2022-11-11T02:41:57.160Z,15.81
2022-11-11T02:48:03.038Z,15.77
2022-11-11T02:54:08.655Z,15.75
2022-11-11T03:00:14.938Z,15.71
2022-11-11T03:06:26.677Z,15.66
2022-11-11T03:12:32.144Z,15.78
2022-11-11T03:18:37.553Z,15.75
2022-11-11T03:25:01.358Z,15.66
2022-11-11T03:31:06.445Z,15.65
2022-11-11T03:37:30.971Z,15.57
2022-11-11T03:43:35.949Z,15.62
2022-11-11T03:49:41.301Z,15.62
2022-11-11T03:55:51.314Z,15.51
2022-11-11T04:02:15.133Z,15.52
2022-11-11T04:08:40.559Z,15.58
2022-11-11T04:15:04.377Z,15.55
2022-11-11T04:21:28.354Z,15.51
2022-11-11T04:27:33.414Z,15.63
2022-11-11T04:33:39.992Z,15.56
2022-11-11T04:40:06.015Z,15.56
2022-11-11T04:46:11.313Z,15.65
2022-11-11T04:52:31.651Z,15.63
2022-11-11T04:58:36.815Z,15.71
2022-11-11T05:04:42.118Z,15.61
2022-11-11T05:10:47.463Z,15.54
2022-11-11T05:17:14.037Z,15.41
2022-11-11T05:23:19.251Z,15.47
2022-11-11T05:29:24.661Z,15.54
2022-11-11T05:35:36.724Z,15.52
2022-11-11T05:41:42.076Z,15.55
2022-11-11T05:47:47.602Z,15.72
2022-11-11T05:53:52.927Z,15.61
2022-11-11T05:59:59.071Z,15.65
2022-11-11T06:06:05.675Z,15.60
2022-11-11T06:12:10.947Z,15.68
2022-11-11T06:18:16.325Z,15.70
2022-11-11T06:24:26.024Z,15.67
2022-11-11T06:36:57.672Z,15.75
2022-11-11T06:43:03.205Z,15.59
2022-11-11T06:49:08.436Z,15.58
2022-11-11T06:55:14.427Z,15.60
2022-11-11T07:01:20.914Z,15.53
2022-11-11T07:07:29.865Z,15.61
2022-11-11T07:13:36.198Z,15.61
2022-11-11T07:19:44.645Z,15.62
2022-11-11T07:25:49.954Z,15.60
2022-11-11T07:31:55.655Z,15.63
2022-11-11T07:38:03.309Z,15.67
2022-11-11T07:44:08.853Z,15.59
2022-11-11T07:50:14.504Z,15.70
2022-11-11T07:56:20.061Z,15.71
2022-11-11T08:02:30.591Z,15.77
2022-11-11T08:08:36.441Z,15.64
2022-11-11T08:14:43.142Z,15.67
2022-11-11T08:20:54.519Z,15.70
2022-11-11T08:27:04.960Z,15.80
2022-11-11T08:33:32.309Z,15.97
2022-11-11T08:39:36.498Z,16.03
2022-11-11T08:45:41.723Z,15.94
2022-11-11T08:51:47.350Z,16.15
2022-11-11T08:58:05.694Z,16.11
2022-11-11T09:04:42.662Z,16.34
2022-11-11T09:10:38.985Z,16.46
2022-11-11T09:16:44.249Z,16.51
2022-11-11T09:22:51.207Z,16.83
2022-11-11T09:28:56.226Z,16.65
2022-11-11T09:35:01.721Z,16.38
2022-11-11T09:41:25.187Z,16.43
2022-11-11T09:47:50.164Z,16.58
2022-11-11T09:54:05.389Z,16.63
2022-11-11T10:00:29.261Z,16.75
2022-11-11T10:06:36.384Z,16.84
2022-11-11T10:12:56.060Z,16.72
2022-11-11T10:19:23.403Z,16.67
2022-11-11T10:25:28.855Z,16.71
2022-11-11T10:31:35.024Z,16.83
2022-11-11T10:37:42.333Z,16.74
2022-11-11T10:43:47.818Z,16.78
2022-11-11T10:49:57.760Z,16.68
2022-11-11T10:56:22.208Z,16.48
2022-11-11T11:02:39.959Z,16.61
2022-11-11T11:08:53.124Z,16.78
2022-11-11T11:15:04.317Z,16.72
2022-11-11T11:21:09.645Z,16.86
2022-11-11T11:27:26.542Z,16.78
2022-11-11T11:33:54.494Z,16.96
2022-11-11T11:40:01.802Z,16.91
2022-11-11T11:46:30.914Z,17.07
2022-11-11T11:52:50.114Z,17.02
2022-11-11T11:59:13.589Z,16.87
2022-11-11T12:05:27.443Z,17.04
2022-11-11T12:11:50.735Z,16.99
2022-11-11T12:18:14.107Z,16.96
2022-11-11T12:24:31.851Z,16.76
2022-11-11T12:30:44.829Z,16.50
2022-11-11T12:36:49.611Z,16.62
2022-11-11T12:43:17.833Z,16.55
2022-11-11T12:49:43.806Z,16.53
2022-11-11T12:56:33.944Z,16.51
2022-11-11T13:03:08.174Z,16.30
2022-11-11T13:09:39.460Z,16.08
2022-11-11T13:15:45.014Z,16.18
2022-11-11T13:22:05.789Z,16.22
2022-11-11T13:28:16.694Z,16.46
2022-11-11T13:34:23.222Z,16.44
2022-11-11T13:40:40.856Z,16.53
2022-11-11T13:46:50.111Z,16.61
2022-11-11T13:53:25.647Z,16.64
2022-11-11T13:59:35.254Z,16.62
2022-11-11T14:05:40.570Z,16.68
2022-11-11T14:11:49.869Z,16.73
2022-11-11T14:17:58.912Z,16.78
2022-11-11T14:24:04.373Z,16.70
2022-11-11T14:30:26.814Z,16.55
2022-11-11T14:36:39.512Z,16.13
2022-11-11T14:42:45.425Z,16.09
2022-11-11T14:48:59.670Z,16.01
2022-11-11T14:55:19.196Z,15.89
2022-11-11T15:01:25.932Z,15.73
2022-11-11T15:07:56.628Z,15.66
2022-11-11T15:14:32.656Z,15.57
2022-11-11T15:20:47.212Z,15.58
2022-11-11T15:27:05.435Z,15.54
2022-11-11T15:33:48.454Z,15.58
2022-11-11T15:39:57.547Z,15.55
2022-11-11T15:46:05.284Z,15.54
2022-11-11T15:52:25.517Z,15.64
2022-11-11T15:58:33.206Z,15.64
2022-11-11T16:04:55.775Z,15.55
2022-11-11T16:11:02.780Z,15.32
2022-11-11T16:17:09.141Z,15.20
2022-11-11T16:23:18.796Z,15.10
2022-11-11T16:29:34.278Z,15.24
2022-11-11T16:35:40.813Z,15.18
2022-11-11T16:41:53.855Z,15.09
2022-11-11T16:48:02.347Z,15.06
2022-11-11T16:54:22.863Z,15.07
2022-11-11T17:00:29.887Z,15.26
2022-11-11T17:06:54.465Z,14.93
2022-11-11T17:13:03.399Z,14.97
2022-11-11T17:19:11.352Z,14.81
2022-11-11T17:25:36.133Z,14.70
2022-11-11T17:32:02.426Z,14.52
2022-11-11T17:38:08.019Z,14.52
2022-11-11T17:44:13.677Z,14.66
2022-11-11T17:50:18.989Z,14.55
2022-11-11T17:56:30.557Z,14.38
2022-11-11T18:02:36.266Z,14.24
2022-11-11T18:08:41.992Z,14.23
2022-11-11T18:14:47.519Z,14.16
2022-11-11T18:20:53.482Z,14.28
2022-11-11T18:27:04.039Z,14.08
2022-11-11T18:33:19.886Z,14.03
2022-11-11T18:39:25.277Z,14.02
2022-11-11T18:45:30.983Z,13.99
2022-11-11T18:51:36.479Z,14.21
2022-11-11T18:57:44.842Z,14.31
2022-11-11T19:03:52.274Z,14.43
2022-11-11T19:09:58.122Z,14.42
2022-11-11T19:16:06.264Z,14.21
2022-11-11T19:22:21.446Z,14.15
2022-11-11T19:28:27.208Z,14.16
2022-11-11T19:34:35.753Z,14.21
2022-11-11T19:40:41.155Z,13.99
2022-11-11T19:46:46.794Z,13.97
2022-11-11T19:52:52.353Z,13.98
2022-11-11T19:58:58.125Z,14.02
2022-11-11T20:05:04.389Z,14.02
2022-11-11T20:11:10.059Z,13.92
2022-11-11T20:17:15.769Z,13.79
2022-11-11T20:23:25.444Z,13.71
2022-11-11T20:29:31.573Z,13.53
2022-11-11T20:35:38.624Z,13.46
2022-11-11T20:41:44.961Z,13.25
2022-11-11T20:47:50.353Z,13.19
2022-11-11T20:53:57.414Z,13.21
2022-11-11T21:00:06.273Z,13.09
2022-11-11T21:06:14.052Z,13.02
2022-11-11T21:12:19.575Z,12.95
2022-11-11T21:18:34.490Z,12.94
2022-11-11T21:24:42.326Z,12.57
2022-11-11T21:30:47.840Z,12.67
2022-11-11T21:36:53.560Z,12.58
2022-11-11T21:42:59.086Z,12.65
2022-11-11T21:49:05.314Z,12.64
2022-11-11T21:55:10.808Z,12.30
2022-11-11T22:01:20.728Z,12.61
2022-11-11T22:07:27.212Z,12.75
2022-11-11T22:13:33.290Z,12.92
2022-11-11T22:19:38.649Z,12.95
2022-11-11T22:25:45.418Z,13.11
2022-11-11T22:31:51.126Z,13.27
2022-11-11T22:37:59.114Z,13.37
2022-11-11T22:44:05.189Z,13.46
2022-11-11T22:50:12.319Z,13.49
2022-11-11T22:56:19.542Z,13.40
2022-11-11T23:02:25.511Z,13.52
2022-11-11T23:08:33.866Z,13.54
2022-11-11T23:14:39.404Z,13.65
2022-11-11T23:20:56.273Z,13.65
2022-11-11T23:27:05.611Z,13.57
2022-11-11T23:33:11.009Z,13.53
2022-11-11T23:39:16.093Z,13.52
2022-11-11T23:45:27.557Z,13.63
2022-11-11T23:58:50.787Z,13.30
